Time;durP1;ratioP1;P1;durP2;ratioP2;P2;SDS_P1;SDS_P2;PMS_P1;PMS_P2;Temp;Humidity;BMP_temperature;BMP_pressure;BME280_temperature;BME280_humidity;BME280_pressure;Samples;Min_cycle;Max_cycle;Signal;HPM_P1;HPM_P2
2021/06/01 00:02:44;;;;;;;2.92;2.65;;;;;;;16.90;46.02;100484.13;10188055;28;20058;-62
2021/06/01 00:07:46;;;;;;;3.53;2.50;;;;;;;16.77;46.62;100479.16;10214998;28;20057;-62
2021/06/01 00:12:48;;;;;;;2.60;2.28;;;;;;;16.70;46.77;100475.41;10203322;28;20067;-61
2021/06/01 00:17:50;;;;;;;2.15;1.95;;;;;;;16.63;46.81;100471.66;10208424;28;20734;-63
2021/06/01 00:22:51;;;;;;;2.92;2.13;;;;;;;16.60;46.89;100472.81;10300765;23;20078;-62
2021/06/01 00:27:53;;;;;;;4.18;2.05;;;;;;;16.53;46.96;100477.97;10276501;28;20078;-62
2021/06/01 00:32:54;;;;;;;2.75;2.08;;;;;;;16.49;46.71;100471.22;10263211;28;20757;-63
2021/06/01 00:37:56;;;;;;;2.83;2.03;;;;;;;16.43;46.75;100461.94;10259825;28;20051;-62
2021/06/01 00:42:57;;;;;;;3.25;2.20;;;;;;;16.38;46.77;100466.13;10260916;28;20502;-63
2021/06/01 00:47:59;;;;;;;2.40;2.20;;;;;;;16.34;46.79;100468.25;10261748;28;20070;-61
2021/06/01 00:53:00;;;;;;;3.08;2.45;;;;;;;16.29;46.83;100470.56;10264905;28;20569;-62
2021/06/01 00:58:03;;;;;;;2.97;2.20;;;;;;;16.22;47.05;100469.50;10258397;28;20134;-62
2021/06/01 01:03:07;;;;;;;3.15;2.30;;;;;;;16.17;47.05;100472.66;10271041;28;20109;-62
2021/06/01 01:08:21;;;;;;;3.80;2.20;;;;;;;16.18;47.26;100474.34;10260492;28;20105;-63
2021/06/01 01:13:23;;;;;;;3.80;1.95;;;;;;;16.10;47.25;100471.59;10268878;28;20448;-63
2021/06/01 01:18:28;;;;;;;2.40;2.20;;;;;;;16.06;47.29;100470.19;10263791;28;20062;-63
2021/06/01 01:23:32;;;;;;;3.78;2.15;;;;;;;16.00;47.53;100469.00;10266526;28;20157;-62
2021/06/01 01:28:52;;;;;;;2.90;2.28;;;;;;;15.93;47.57;100465.22;10263310;28;20125;-62
2021/06/01 01:33:56;;;;;;;3.20;2.42;;;;;;;15.87;47.76;100466.69;10266506;28;20121;-64
2021/06/01 01:38:58;;;;;;;;;;;;;;;15.82;48.03;100476.16;10266033;28;20135;-63
2021/06/01 01:44:01;;;;;;;3.10;2.20;;;;;;;15.74;48.18;100463.47;10260515;28;19922;-62
2021/06/01 01:49:04;;;;;;;4.03;2.27;;;;;;;15.70;48.09;100464.78;10265336;28;20559;-65
2021/06/01 01:54:13;;;;;;;2.20;1.85;;;;;;;15.62;48.50;100459.34;10259225;28;20074;-61
2021/06/01 01:59:20;;;;;;;2.55;2.35;;;;;;;15.62;48.28;100465.53;10255034;28;20138;-61
2021/06/01 02:04:24;;;;;;;2.42;2.20;;;;;;;15.61;48.33;100476.41;10264327;28;20054;-61
2021/06/01 02:09:26;;;;;;;3.30;2.40;;;;;;;15.57;48.45;100465.16;10258900;28;20075;-62
2021/06/01 02:14:28;;;;;;;2.97;2.65;;;;;;;15.53;48.74;100471.81;10253298;28;20679;-63
2021/06/01 02:19:29;;;;;;;4.00;2.92;;;;;;;15.49;48.97;100465.91;10225684;28;1044473;-65
2021/06/01 02:24:46;;;;;;;3.08;2.78;;;;;;;15.45;49.06;100459.16;10252383;28;20142;-62
2021/06/01 02:30:02;;;;;;;2.88;2.53;;;;;;;15.41;49.19;100470.34;10259024;28;20114;-61
2021/06/01 02:35:08;;;;;;;3.20;2.75;;;;;;;15.37;49.31;100475.13;10255014;28;20071;-62
2021/06/01 02:40:11;;;;;;;5.97;3.03;;;;;;;15.35;49.38;100469.09;10255120;28;20066;-62
2021/06/01 02:45:17;;;;;;;3.33;2.50;;;;;;;15.33;49.49;100474.59;10250200;28;20042;-62
2021/06/01 02:50:20;;;;;;;2.70;2.50;;;;;;;15.33;49.67;100473.78;10244826;28;20078;-62
2021/06/01 02:55:22;;;;;;;2.40;2.17;;;;;;;15.30;49.65;100471.38;10257481;28;20130;-62
2021/06/01 03:00:26;;;;;;;3.70;2.75;;;;;;;15.28;49.70;100476.91;10257676;28;20086;-62
2021/06/01 03:05:29;;;;;;;3.25;2.95;;;;;;;15.22;49.72;100479.31;10246737;28;20075;-63
2021/06/01 03:10:30;;;;;;;4.18;2.58;;;;;;;15.17;49.94;100474.41;10257864;28;20085;-69
2021/06/01 03:15:32;;;;;;;2.65;2.45;;;;;;;15.10;49.96;100475.97;10255718;28;20050;-62
2021/06/01 03:20:34;;;;;;;2.78;2.47;;;;;;;15.06;49.93;100472.75;10257734;28;20516;-62
2021/06/01 03:25:35;;;;;;;2.80;2.50;;;;;;;15.04;50.15;100466.69;10258881;28;20077;-62
2021/06/01 03:30:37;;;;;;;2.83;2.42;;;;;;;15.03;50.06;100467.69;10251129;28;20070;-61
2021/06/01 03:35:39;;;;;;;2.90;2.13;;;;;;;15.00;50.38;100473.34;10261418;28;20158;-62
2021/06/01 03:40:41;;;;;;;3.28;2.28;;;;;;;14.99;50.25;100474.34;10249540;28;20136;-62
2021/06/01 03:45:43;;;;;;;3.00;2.58;;;;;;;15.00;50.24;100465.31;10266927;28;20397;-62
2021/06/01 03:50:45;;;;;;;4.22;2.60;;;;;;;15.03;50.23;100475.75;10251343;28;20711;-62
2021/06/01 03:55:46;;;;;;;2.70;2.50;;;;;;;14.98;50.04;100465.47;10250312;28;20071;-61
2021/06/01 04:00:47;;;;;;;2.85;2.45;;;;;;;15.04;49.99;100469.38;10251541;28;20086;-63
2021/06/01 04:05:49;;;;;;;3.92;2.45;;;;;;;15.08;50.14;100473.44;10238736;28;20066;-62
2021/06/01 04:10:50;;;;;;;3.53;2.85;;;;;;;15.12;50.24;100466.81;10235182;28;20070;-62
2021/06/01 04:15:51;;;;;;;4.28;2.72;;;;;;;15.13;50.29;100473.88;10255833;28;20051;-63
2021/06/01 04:20:53;;;;;;;2.58;2.38;;;;;;;15.17;50.49;100475.25;10244241;28;20944;-62
2021/06/01 04:25:55;;;;;;;3.75;2.83;;;;;;;15.12;50.74;100469.50;10223951;28;20047;-63
2021/06/01 04:30:56;;;;;;;3.47;2.90;;;;;;;15.12;50.55;100466.81;10217626;28;20071;-63
2021/06/01 04:35:59;;;;;;;3.75;2.78;;;;;;;15.13;50.83;100476.53;10216081;28;20429;-61
2021/06/01 04:41:00;;;;;;;3.38;3.08;;;;;;;15.13;50.83;100475.69;10210634;28;20121;-62
2021/06/01 04:46:02;;;;;;;3.75;3.10;;;;;;;15.16;51.04;100478.06;10209228;28;20051;-64
2021/06/01 04:51:03;;;;;;;4.93;3.50;;;;;;;15.25;52.07;100470.97;10209930;28;20070;-63
2021/06/01 04:56:05;;;;;;;3.08;2.70;;;;;;;15.34;51.05;100470.06;10219150;28;20047;-61
2021/06/01 05:01:07;;;;;;;4.80;3.05;;;;;;;15.36;51.00;100462.75;10201238;28;20690;-63
2021/06/01 05:06:09;;;;;;;3.78;3.40;;;;;;;15.46;51.44;100466.22;10199339;28;20055;-61
2021/06/01 05:11:10;;;;;;;5.60;3.75;;;;;;;15.51;49.49;100463.91;10212680;28;20406;-63
2021/06/01 05:16:13;;;;;;;5.97;4.45;;;;;;;15.58;49.87;100460.63;10210408;28;20512;-63
2021/06/01 05:21:16;;;;;;;3.33;3.03;;;;;;;15.62;49.55;100456.66;10212799;28;20043;-63
2021/06/01 05:26:17;;;;;;;3.88;3.53;;;;;;;15.64;49.34;100460.03;10214008;28;20077;-61
2021/06/01 05:31:25;;;;;;;2.83;2.53;;;;;;;15.76;49.26;100464.16;10203789;28;20500;-63
2021/06/01 05:36:26;;;;;;;3.05;2.65;;;;;;;15.87;48.98;100461.31;10215262;28;20102;-62
2021/06/01 05:41:28;;;;;;;4.35;2.47;;;;;;;16.02;49.77;100466.97;10194759;28;20122;-63
2021/06/01 05:46:29;;;;;;;2.95;2.67;;;;;;;16.13;49.71;100465.91;10207240;28;20052;-62
2021/06/01 05:51:35;;;;;;;2.72;2.33;;;;;;;16.22;48.72;100470.34;10208438;28;20051;-62
2021/06/01 05:56:36;;;;;;;2.70;2.38;;;;;;;16.25;48.11;100463.81;10205211;28;20069;-62
2021/06/01 06:01:38;;;;;;;3.72;2.75;;;;;;;16.28;47.31;100468.03;10200636;28;20055;-62
2021/06/01 06:06:40;;;;;;;3.17;2.92;;;;;;;16.42;50.25;100464.78;10197960;28;20503;-62
2021/06/01 06:11:42;;;;;;;3.78;2.78;;;;;;;16.61;48.55;100456.53;10194322;28;20055;-62
2021/06/01 06:16:49;;;;;;;3.50;2.72;;;;;;;16.87;47.55;100453.00;10182028;28;20187;-61
2021/06/01 06:21:51;;;;;;;2.78;2.45;;;;;;;17.12;47.80;100466.59;10231005;23;21544;-58
2021/06/01 06:26:52;;;;;;;4.13;2.80;;;;;;;17.21;46.48;100462.09;10295467;28;20057;-58
2021/06/01 06:31:54;;;;;;;3.10;2.45;;;;;;;17.30;45.33;100453.88;10290321;28;20128;-61
2021/06/01 06:36:55;;;;;;;4.05;2.80;;;;;;;17.36;46.62;100462.31;10278474;28;21079;-64
2021/06/01 06:41:57;;;;;;;2.90;2.35;;;;;;;17.47;46.14;100462.00;10280765;28;20154;-61
2021/06/01 06:47:05;;;;;;;5.22;2.50;;;;;;;17.60;45.63;100451.63;10277878;28;20196;-61
2021/06/01 06:52:10;;;;;;;2.42;2.22;;;;;;;17.73;45.58;100459.22;10277728;28;20046;-62
2021/06/01 06:57:12;;;;;;;4.90;2.80;;;;;;;18.00;44.61;100463.50;10280426;28;20977;-65
2021/06/01 07:02:13;;;;;;;5.00;2.70;;;;;;;18.14;44.34;100462.00;10284244;28;20124;-62
2021/06/01 07:07:15;;;;;;;5.90;2.92;;;;;;;18.36;43.54;100457.78;10283608;28;20472;-62
2021/06/01 07:12:16;;;;;;;3.10;2.03;;;;;;;18.54;43.44;100446.81;10285705;28;20137;-61
2021/06/01 07:17:20;;;;;;;2.45;2.25;;;;;;;18.71;43.59;100455.72;10280976;28;20062;-62
2021/06/01 07:22:22;;;;;;;;;;;;;;;18.94;44.02;100462.25;10283197;28;20082;-62
2021/06/01 07:27:23;;;;;;;2.80;2.25;;;;;;;19.05;42.44;100443.84;10281406;28;19936;-62
2021/06/01 07:32:25;;;;;;;4.35;2.60;;;;;;;19.13;43.10;100459.16;10283347;28;20125;-61
2021/06/01 07:37:27;;;;;;;2.55;2.35;;;;;;;19.31;43.49;100458.91;10282848;28;20096;-61
2021/06/01 07:42:28;;;;;;;4.03;2.80;;;;;;;19.47;42.78;100449.91;10282014;28;20058;-62
2021/06/01 07:47:30;;;;;;;5.65;2.38;;;;;;;19.49;41.79;100442.47;10283668;28;20532;-62
2021/06/01 07:52:31;;;;;;;3.40;2.70;;;;;;;19.77;42.40;100447.34;10283511;28;20116;-65
2021/06/01 07:57:33;;;;;;;3.72;2.25;;;;;;;19.90;42.52;100431.41;10280645;28;20109;-62
2021/06/01 08:02:34;;;;;;;2.72;2.40;;;;;;;20.24;39.14;100437.41;10280579;28;20180;-63
2021/06/01 08:07:36;;;;;;;3.63;2.67;;;;;;;20.44;38.95;100437.72;10281408;28;20430;-62
2021/06/01 08:12:38;;;;;;;6.40;5.20;;;;;;;20.67;38.49;100437.69;10280754;28;20133;-63
2021/06/01 08:17:40;;;;;;;2.83;2.60;;;;;;;20.71;38.42;100432.75;10274527;28;20129;-63
2021/06/01 08:22:43;;;;;;;2.38;2.00;;;;;;;20.90;37.71;100431.38;10280327;28;20073;-62
2021/06/01 08:27:45;;;;;;;4.72;2.53;;;;;;;20.98;36.96;100420.44;10281742;28;20502;-62
2021/06/01 08:32:47;;;;;;;3.15;2.03;;;;;;;21.35;37.23;100419.44;10281924;28;20051;-63
2021/06/01 08:37:49;;;;;;;2.38;2.17;;;;;;;21.70;36.91;100408.81;10281194;28;20112;-64
2021/06/01 08:42:52;;;;;;;2.33;2.13;;;;;;;22.04;36.18;100407.25;10280286;28;20117;-63
2021/06/01 08:47:56;;;;;;;3.33;2.70;;;;;;;22.12;35.56;100414.41;10279682;28;20049;-62
2021/06/01 08:52:57;;;;;;;2.92;1.90;;;;;;;22.11;35.33;100399.19;10280845;28;20113;-62
2021/06/01 08:57:59;;;;;;;3.25;2.90;;;;;;;22.56;34.12;100393.50;10280095;28;20129;-63
2021/06/01 09:03:10;;;;;;;2.50;1.90;;;;;;;22.51;34.24;100383.25;10276433;28;20138;-64
2021/06/01 09:08:12;;;;;;;1.88;1.70;;;;;;;22.89;32.67;100387.41;10282543;28;20064;-63
2021/06/01 09:13:38;;;;;;;3.75;2.25;;;;;;;23.11;31.53;100374.59;10283920;28;20069;-64
2021/06/01 09:24:03;;;;;;;3.72;2.00;;;;;;;23.19;30.72;100365.44;10297987;28;20049;-62
2021/06/01 09:29:04;;;;;;;2.88;2.30;;;;;;;23.57;30.40;100349.44;10300089;28;20125;-63
2021/06/01 09:34:07;;;;;;;4.45;1.80;;;;;;;23.91;30.47;100349.50;10280759;28;20133;-65
2021/06/01 09:39:23;;;;;;;2.40;1.90;;;;;;;24.24;28.80;100345.91;10297015;28;20821;-64
2021/06/01 09:44:24;;;;;;;3.55;1.80;;;;;;;24.48;27.63;100342.50;10292971;28;20046;-64
2021/06/01 09:49:26;;;;;;;2.90;1.98;;;;;;;24.60;28.71;100340.00;10299398;28;20207;-64
2021/06/01 09:54:32;;;;;;;2.15;1.88;;;;;;;24.67;27.04;100319.06;10304544;28;20062;-63
2021/06/01 09:59:33;;;;;;;2.90;1.80;;;;;;;25.15;27.91;100328.69;10298043;28;20124;-64
2021/06/01 10:04:35;;;;;;;3.65;1.98;;;;;;;25.35;25.78;100319.59;10296415;28;20050;-65
2021/06/01 10:09:44;;;;;;;1.65;1.55;;;;;;;24.94;25.70;100321.66;10298083;28;20145;-63
2021/06/01 10:14:46;;;;;;;2.20;1.67;;;;;;;25.10;24.64;100317.63;10298299;28;20566;-64
2021/06/01 10:19:55;;;;;;;2.58;1.80;;;;;;;25.18;25.46;100309.19;10294176;28;20047;-62
2021/06/01 10:24:56;;;;;;;1.42;1.33;;;;;;;25.51;25.22;100305.44;10292861;28;20482;-63
2021/06/01 10:29:58;;;;;;;1.48;1.35;;;;;;;25.87;24.03;100309.34;10299565;28;20070;-62
2021/06/01 10:35:01;;;;;;;1.75;1.20;;;;;;;26.28;23.93;100298.91;10296144;28;20200;-63
2021/06/01 10:50:45;;;;;;;1.60;1.42;;;;;;;26.63;24.57;100282.75;10295526;28;20060;-64
2021/06/01 10:56:03;;;;;;;4.10;1.60;;;;;;;26.95;23.73;100279.84;10276304;28;20129;-64
2021/06/01 11:12:18;;;;;;;1.52;1.40;;;;;;;27.20;22.55;100269.84;10250847;28;21566;-63
2021/06/01 11:17:41;;;;;;;2.75;1.30;;;;;;;26.96;23.22;100253.38;10291271;28;20483;-66
2021/06/01 11:33:27;;;;;;;2.67;1.43;;;;;;;26.93;22.23;100251.09;10280803;28;20185;-63
2021/06/01 11:43:38;;;;;;;2.47;1.70;;;;;;;27.14;21.91;100226.00;10281832;28;20050;-63
2021/06/01 11:53:51;;;;;;;2.95;1.33;;;;;;;26.83;22.64;100215.31;10281268;28;20073;-64
2021/06/01 12:04:17;;;;;;;2.35;1.35;;;;;;;26.91;21.50;100207.63;10282606;28;20129;-65
2021/06/01 12:20:14;;;;;;;2.13;1.20;;;;;;;26.63;22.51;100194.56;10280587;28;20494;-64
2021/06/01 12:25:28;;;;;;;2.03;1.33;;;;;;;26.63;21.90;100184.50;10244527;23;20054;-63
2021/06/01 13:14:04;;;;;;;1.40;1.30;;;;;;;26.52;22.54;100121.69;10248533;28;20185;-62
2021/06/01 13:19:25;;;;;;;2.15;1.63;;;;;;;26.44;23.41;100131.84;10251195;28;20113;-62
2021/06/01 13:30:19;;;;;;;4.25;1.52;;;;;;;26.44;22.49;100120.94;10254797;28;20074;-62
2021/06/01 13:45:57;;;;;;;2.72;1.30;;;;;;;26.35;23.55;100105.94;10251057;28;20168;-63
2021/06/01 13:56:25;;;;;;;2.30;1.30;;;;;;;26.06;23.51;100081.16;10248564;28;20070;-63
2021/06/01 14:02:09;;;;;;;1.50;1.30;;;;;;;26.11;23.62;100075.84;10247690;28;20138;-63
2021/06/01 16:42:07;;;;;;;2.33;1.58;;;;;;;24.98;24.37;99970.84;10219071;28;20122;-62
2021/06/01 17:03:17;;;;;;;2.72;1.50;;;;;;;24.66;24.62;99962.78;10235516;28;20187;-62
2021/06/01 17:13:20;;;;;;;2.33;1.42;;;;;;;24.60;25.07;99963.69;10235010;28;20142;-57
2021/06/01 17:39:16;;;;;;;1.63;1.20;;;;;;;24.27;25.70;99965.56;10245221;28;20468;-57
2021/06/01 17:44:21;;;;;;;3.65;2.03;;;;;;;24.16;26.02;99967.13;10239179;28;20137;-62
2021/06/01 17:49:40;;;;;;;5.53;1.85;;;;;;;24.09;26.43;99969.06;10243686;28;20696;-62
2021/06/01 17:54:49;;;;;;;2.65;1.40;;;;;;;23.99;26.61;99955.97;10243841;28;20065;-58
2021/06/01 17:59:51;;;;;;;2.72;1.40;;;;;;;23.94;27.21;99950.31;10244549;28;20051;-63
2021/06/01 18:04:53;;;;;;;3.00;1.60;;;;;;;23.86;26.77;99961.47;10244033;28;20146;-60
2021/06/01 19:24:58;;;;;;;3.63;1.67;;;;;;;22.71;31.16;99972.84;10288282;28;20053;-52
2021/06/01 19:51:25;;;;;;;4.30;3.00;;;;;;;22.29;33.27;99975.75;10293732;28;20050;-51
2021/06/01 19:56:26;;;;;;;5.55;4.00;;;;;;;22.20;34.19;99975.13;10278435;28;20129;-51
2021/06/01 20:01:29;;;;;;;4.20;3.58;;;;;;;22.13;34.41;99981.56;10292304;28;20129;-51
2021/06/01 20:06:32;;;;;;;3.28;2.97;;;;;;;22.04;34.81;99979.06;10291440;28;20125;-53
2021/06/01 20:11:34;;;;;;;4.05;2.80;;;;;;;21.95;34.88;99980.28;10295108;28;20415;-53
2021/06/01 20:16:40;;;;;;;5.65;4.00;;;;;;;21.92;34.78;99987.97;10290869;28;20105;-53
2021/06/01 20:21:46;;;;;;;4.65;2.58;;;;;;;21.83;34.87;99985.47;10297627;28;20050;-54
2021/06/01 20:26:48;;;;;;;3.38;2.88;;;;;;;21.79;35.38;99997.75;10287475;28;20141;-53
2021/06/01 20:31:57;;;;;;;3.97;2.80;;;;;;;21.69;34.82;99979.19;10290145;28;20082;-53
2021/06/01 20:36:59;;;;;;;3.00;2.40;;;;;;;21.67;35.17;99986.66;10273985;28;20387;-51
2021/06/01 20:42:01;;;;;;;4.47;2.40;;;;;;;21.64;36.41;99995.19;10288671;28;20107;-51
2021/06/01 20:47:05;;;;;;;3.20;2.90;;;;;;;21.57;36.42;99994.31;10292356;28;20133;-50
2021/06/01 20:52:07;;;;;;;4.50;3.58;;;;;;;21.47;36.48;99997.38;10290815;28;20057;-63
2021/06/01 20:57:09;;;;;;;3.80;2.80;;;;;;;21.37;35.98;99996.91;10279006;28;20653;-62
2021/06/01 21:02:12;;;;;;;2.45;2.25;;;;;;;21.26;35.48;100000.16;10287871;28;20058;-65
2021/06/01 21:07:14;;;;;;;3.85;2.78;;;;;;;21.17;35.42;99986.00;10292235;28;20141;-62
2021/06/01 21:12:15;;;;;;;4.22;2.45;;;;;;;21.07;35.64;99989.03;10290958;28;20121;-62
2021/06/01 21:17:17;;;;;;;2.88;2.58;;;;;;;20.98;35.37;99993.75;10295014;28;20430;-62
2021/06/01 21:22:19;;;;;;;2.97;2.15;;;;;;;20.89;35.63;100003.06;10294623;28;20134;-63
2021/06/01 21:27:20;;;;;;;4.18;2.13;;;;;;;20.79;36.07;99986.34;10294091;28;20868;-63
2021/06/01 21:32:44;;;;;;;4.03;2.92;;;;;;;20.76;35.90;99994.84;10296632;28;20209;-62
2021/06/01 21:37:49;;;;;;;3.72;3.30;;;;;;;20.68;36.39;99995.03;10289670;28;20045;-62
2021/06/01 21:42:51;;;;;;;3.05;2.13;;;;;;;20.57;36.76;99996.38;10297575;28;20142;-62
2021/06/01 21:48:00;;;;;;;2.90;2.00;;;;;;;20.51;37.61;99992.56;10299411;28;20439;-62
2021/06/01 21:53:05;;;;;;;2.85;2.65;;;;;;;20.47;37.04;99999.38;10299155;28;20145;-63
2021/06/01 21:58:07;;;;;;;4.40;2.90;;;;;;;20.38;37.32;100012.19;10298182;28;20137;-62
2021/06/01 22:03:15;;;;;;;2.50;2.25;;;;;;;20.32;37.54;100012.97;10293197;28;20312;-62
2021/06/01 22:08:18;;;;;;;3.55;2.10;;;;;;;20.28;37.92;100006.28;10289433;28;20129;-62
2021/06/01 22:13:21;;;;;;;2.60;1.88;;;;;;;20.19;38.63;100007.44;10290080;28;20077;-62
2021/06/01 22:18:29;;;;;;;2.50;2.30;;;;;;;20.11;39.13;100011.94;10299443;28;20062;-62
2021/06/01 22:23:39;;;;;;;3.35;1.98;;;;;;;20.03;39.81;100020.16;10294157;28;20070;-61
2021/06/01 22:28:42;;;;;;;2.70;2.33;;;;;;;19.95;40.36;100012.16;10293745;28;20057;-62
2021/06/01 22:33:47;;;;;;;2.95;1.80;;;;;;;19.90;41.00;100014.59;10292058;28;20096;-62
2021/06/01 22:38:52;;;;;;;2.70;2.08;;;;;;;19.84;41.25;100021.59;10291590;28;20144;-62
2021/06/01 22:43:54;;;;;;;2.85;2.20;;;;;;;19.77;41.81;100026.06;10293161;28;20069;-63
2021/06/01 22:48:57;;;;;;;3.83;2.10;;;;;;;19.71;41.90;100021.41;10292495;28;20157;-63
2021/06/01 22:54:07;;;;;;;2.05;1.88;;;;;;;19.66;42.17;100021.97;10289134;28;20138;-66
2021/06/01 22:59:20;;;;;;;3.70;2.25;;;;;;;19.56;42.45;100021.44;10288242;28;20097;-65
2021/06/01 23:04:22;;;;;;;3.13;2.47;;;;;;;19.54;42.87;100027.00;10295669;28;20131;-65
2021/06/01 23:09:26;;;;;;;3.08;2.45;;;;;;;19.45;42.97;100027.31;10294291;28;20152;-64
2021/06/01 23:14:28;;;;;;;2.97;2.72;;;;;;;19.42;43.57;100021.25;10285730;28;20142;-63
2021/06/01 23:19:34;;;;;;;2.72;2.30;;;;;;;19.36;43.68;100027.41;10289220;28;20074;-63
2021/06/01 23:24:35;;;;;;;2.00;1.80;;;;;;;19.32;44.01;100022.56;10284249;28;20130;-65
2021/06/01 23:29:39;;;;;;;6.32;3.03;;;;;;;19.23;44.83;100024.50;10287801;28;20468;-65
2021/06/01 23:34:40;;;;;;;4.05;2.38;;;;;;;19.11;44.82;100026.00;10289769;28;20097;-65
2021/06/01 23:39:53;;;;;;;2.83;2.28;;;;;;;19.07;45.05;100025.53;10285309;28;20109;-64
2021/06/01 23:44:54;;;;;;;7.30;2.25;;;;;;;18.96;45.62;100018.75;10286368;28;20101;-63
2021/06/01 23:49:57;;;;;;;3.40;2.78;;;;;;;18.94;45.88;100020.78;10286840;28;20077;-64
2021/06/01 23:55:01;;;;;;;2.83;2.38;;;;;;;18.87;46.06;100033.31;10288437;28;20453;-63
